Time;durP1;ratioP1;P1;durP2;ratioP2;P2;SDS_P1;SDS_P2;PMS_P1;PMS_P2;Temp;Humidity;BMP_temperature;BMP_pressure;BME280_temperature;BME280_humidity;BME280_pressure;Samples;Min_cycle;Max_cycle;Signal;HPM_P1;HPM_P2
2022/09/26 00:00:06;;;;;;;1.30;1.20;;;;;;;;;;5046168;28;20221;-85
2022/09/26 00:02:33;;;;;;;1.63;1.52;;;;;;;;;;5050808;28;20623;-85
2022/09/26 00:05:01;;;;;;;4.65;1.95;;;;;;;;;;5044152;28;20241;-85
2022/09/26 00:07:28;;;;;;;1.23;1.15;;;;;;;;;;5054855;28;20281;-85
2022/09/26 00:09:56;;;;;;;1.42;1.33;;;;;;;;;;5052867;28;20208;-86
2022/09/26 00:12:24;;;;;;;1.45;1.30;;;;;;;;;;5037488;28;20267;-85
2022/09/26 00:14:52;;;;;;;1.60;1.45;;;;;;;;;;5042251;28;20229;-83
2022/09/26 00:17:19;;;;;;;1.90;1.67;;;;;;;;;;5043790;28;20230;-82
2022/09/26 00:19:47;;;;;;;1.73;1.60;;;;;;;;;;5044765;28;20644;-82
2022/09/26 00:22:14;;;;;;;1.85;1.75;;;;;;;;;;5035923;28;20190;-83
2022/09/26 00:24:42;;;;;;;2.42;1.60;;;;;;;;;;5037974;28;20245;-82
2022/09/26 00:27:10;;;;;;;1.90;1.70;;;;;;;;;;5052486;28;20194;-82
2022/09/26 00:29:39;;;;;;;2.35;1.77;;;;;;;;;;5039205;28;20312;-82
2022/09/26 00:32:07;;;;;;;1.85;1.73;;;;;;;;;;5054274;28;20226;-82
2022/09/26 00:34:34;;;;;;;2.00;1.80;;;;;;;;;;5043409;28;20794;-82
2022/09/26 00:37:02;;;;;;;2.47;1.70;;;;;;;;;;5035793;28;20397;-82
2022/09/26 00:39:30;;;;;;;1.75;1.65;;;;;;;;;;5049613;28;20193;-82
2022/09/26 00:41:57;;;;;;;2.65;1.83;;;;;;;;;;5042522;28;20198;-82
2022/09/26 00:44:49;;;;;;;1.80;1.67;;;;;;;;;;5042597;28;20309;-82
2022/09/26 00:47:39;;;;;;;2.58;1.60;;;;;;;;;;5034594;28;20202;-83
2022/09/26 00:50:13;;;;;;;3.38;1.60;;;;;;;;;;5042178;28;20229;-82
2022/09/26 00:52:45;;;;;;;2.63;1.77;;;;;;;;;;5050823;28;20198;-81
2022/09/26 00:55:14;;;;;;;1.48;1.38;;;;;;;;;;5047684;28;20232;-84
2022/09/26 00:57:46;;;;;;;1.90;1.60;;;;;;;;;;5053695;28;20675;-85
2022/09/26 01:00:15;;;;;;;1.75;1.40;;;;;;;;;;5043404;28;20230;-85
2022/09/26 01:02:44;;;;;;;2.42;1.42;;;;;;;;;;5052015;28;20237;-84
2022/09/26 01:05:14;;;;;;;1.67;1.58;;;;;;;;;;5046677;28;20226;-85
2022/09/26 01:07:42;;;;;;;2.00;1.90;;;;;;;;;;5034294;28;20208;-84
2022/09/26 01:10:10;;;;;;;1.50;1.40;;;;;;;;;;5042476;28;20638;-84
2022/09/26 01:12:38;;;;;;;1.92;1.48;;;;;;;;;;5037211;28;20213;-85
2022/09/26 01:15:08;;;;;;;2.10;1.58;;;;;;;;;;5045279;28;20743;-84
2022/09/26 01:17:39;;;;;;;1.83;1.70;;;;;;;;;;5044901;28;20293;-83
2022/09/26 01:20:21;;;;;;;1.48;1.38;;;;;;;;;;5036397;28;21418;-82
2022/09/26 01:23:57;;;;;;;2.22;1.38;;;;;;;;;;5045070;28;20683;-82
2022/09/26 01:26:48;;;;;;;1.58;1.48;;;;;;;;;;5031490;28;20281;-85
2022/09/26 01:30:01;;;;;;;1.73;1.60;;;;;;;;;;5035401;28;20635;-84
2022/09/26 01:32:51;;;;;;;1.95;1.83;;;;;;;;;;5043792;28;20209;-85
2022/09/26 01:35:30;;;;;;;1.67;1.58;;;;;;;;;;5041586;28;20642;-84
2022/09/26 01:38:09;;;;;;;1.85;1.75;;;;;;;;;;5049751;28;20578;-84
2022/09/26 01:40:45;;;;;;;1.67;1.55;;;;;;;;;;5053558;28;20308;-85
2022/09/26 01:43:18;;;;;;;1.40;1.30;;;;;;;;;;5053196;28;20693;-84
2022/09/26 01:45:54;;;;;;;1.70;1.60;;;;;;;;;;5040964;28;20217;-85
2022/09/26 01:48:27;;;;;;;1.25;1.25;;;;;;;;;;5033361;28;20209;-85
2022/09/26 01:51:00;;;;;;;1.45;1.35;;;;;;;;;;5051338;28;20668;-85
2022/09/26 01:53:33;;;;;;;1.60;1.48;;;;;;;;;;5053336;28;20204;-85
2022/09/26 01:56:04;;;;;;;1.20;1.10;;;;;;;;;;5054234;28;20194;-82
2022/09/26 01:58:37;;;;;;;1.60;1.50;;;;;;;;;;5051734;28;20661;-81
2022/09/26 02:01:09;;;;;;;2.67;1.92;;;;;;;;;;5041276;28;20717;-82
2022/09/26 02:03:39;;;;;;;1.23;1.20;;;;;;;;;;5038909;28;20282;-83
2022/09/26 02:06:11;;;;;;;1.45;1.35;;;;;;;;;;5042675;28;20194;-85
2022/09/26 02:08:42;;;;;;;1.52;1.48;;;;;;;;;;5052089;28;20292;-85
2022/09/26 02:11:12;;;;;;;1.50;1.40;;;;;;;;;;5046446;28;20251;-85
2022/09/26 02:13:45;;;;;;;1.20;1.20;;;;;;;;;;5051561;28;20293;-85
2022/09/26 02:16:19;;;;;;;1.23;1.20;;;;;;;;;;5041683;28;20217;-85
2022/09/26 02:18:50;;;;;;;1.75;1.65;;;;;;;;;;5043153;28;20204;-85
2022/09/26 02:21:21;;;;;;;1.30;1.20;;;;;;;;;;5040795;28;20243;-85
2022/09/26 02:23:50;;;;;;;1.30;1.20;;;;;;;;;;5044682;28;20583;-85
2022/09/26 02:26:17;;;;;;;2.10;1.20;;;;;;;;;;5052913;28;20275;-85
2022/09/26 02:28:45;;;;;;;1.00;1.00;;;;;;;;;;5050608;28;20229;-85
2022/09/26 02:31:21;;;;;;;1.52;0.98;;;;;;;;;;5039757;28;20193;-86
2022/09/26 02:33:50;;;;;;;1.17;1.02;;;;;;;;;;5047364;28;20205;-85
2022/09/26 02:36:20;;;;;;;1.20;1.05;;;;;;;;;;5048958;28;20190;-86
2022/09/26 02:38:47;;;;;;;1.55;1.10;;;;;;;;;;5052961;28;20285;-85
2022/09/26 02:41:22;;;;;;;0.85;0.80;;;;;;;;;;5045062;28;20226;-85
2022/09/26 02:44:08;;;;;;;1.38;1.05;;;;;;;;;;5047660;28;20251;-83
2022/09/26 02:46:56;;;;;;;2.63;1.15;;;;;;;;;;5050047;28;20190;-83
2022/09/26 02:49:58;;;;;;;2.38;1.00;;;;;;;;;;5055462;28;20277;-83
2022/09/26 02:52:36;;;;;;;1.13;1.02;;;;;;;;;;5045643;28;20229;-83
2022/09/26 02:55:15;;;;;;;0.93;0.93;;;;;;;;;;5045856;28;20221;-83
2022/09/26 02:57:52;;;;;;;1.30;1.10;;;;;;;;;;5056660;28;20206;-83
2022/09/26 03:00:22;;;;;;;1.00;0.95;;;;;;;;;;5048166;28;20210;-83
2022/09/26 03:02:57;;;;;;;2.53;1.27;;;;;;;;;;5044548;28;20316;-83
2022/09/26 03:05:26;;;;;;;1.42;1.20;;;;;;;;;;5056621;28;20235;-83
2022/09/26 03:07:58;;;;;;;1.30;1.13;;;;;;;;;;5038600;28;20201;-83
2022/09/26 03:10:27;;;;;;;3.40;1.33;;;;;;;;;;5045687;28;20206;-83
2022/09/26 03:12:55;;;;;;;2.33;1.40;;;;;;;;;;5056889;28;20316;-83
2022/09/26 03:15:24;;;;;;;1.70;1.60;;;;;;;;;;5047067;28;20275;-84
2022/09/26 03:17:54;;;;;;;1.50;1.35;;;;;;;;;;5053991;28;20190;-83
2022/09/26 03:20:24;;;;;;;1.30;1.10;;;;;;;;;;5046512;28;20201;-83
2022/09/26 03:22:52;;;;;;;3.20;1.42;;;;;;;;;;5048447;28;20214;-83
2022/09/26 03:25:23;;;;;;;4.88;2.95;;;;;;;;;;5056003;28;20301;-83
2022/09/26 03:27:51;;;;;;;1.55;1.35;;;;;;;;;;5055007;28;20206;-83
2022/09/26 03:30:20;;;;;;;1.55;1.45;;;;;;;;;;5044596;28;20213;-83
2022/09/26 03:32:47;;;;;;;1.42;1.17;;;;;;;;;;5042844;28;20249;-83
2022/09/26 03:35:17;;;;;;;2.10;1.50;;;;;;;;;;5036609;28;20219;-84
2022/09/26 03:37:44;;;;;;;1.30;1.20;;;;;;;;;;5051767;28;20301;-83
2022/09/26 03:40:13;;;;;;;2.28;1.20;;;;;;;;;;5056425;28;20634;-83
2022/09/26 03:42:41;;;;;;;1.13;1.02;;;;;;;;;;5046880;28;20237;-83
2022/09/26 03:45:11;;;;;;;1.75;1.50;;;;;;;;;;5044046;28;20250;-83
2022/09/26 03:47:39;;;;;;;1.55;1.17;;;;;;;;;;5037993;28;20202;-83
2022/09/26 03:50:08;;;;;;;1.15;1.05;;;;;;;;;;5035974;28;20202;-84
2022/09/26 03:52:37;;;;;;;1.88;1.40;;;;;;;;;;5044913;28;20199;-83
2022/09/26 03:55:05;;;;;;;1.42;1.33;;;;;;;;;;5036854;28;20241;-83
2022/09/26 03:57:33;;;;;;;1.20;1.10;;;;;;;;;;5035127;28;20207;-84
2022/09/26 04:00:00;;;;;;;1.73;1.63;;;;;;;;;;5041160;28;20209;-84
2022/09/26 04:02:28;;;;;;;2.88;1.80;;;;;;;;;;5045127;28;20229;-84
2022/09/26 04:04:55;;;;;;;3.45;1.90;;;;;;;;;;5035051;28;20309;-84
2022/09/26 04:07:23;;;;;;;4.80;2.03;;;;;;;;;;5036301;28;20277;-83
2022/09/26 04:09:51;;;;;;;2.17;1.92;;;;;;;;;;5041547;28;20224;-83
2022/09/26 04:12:20;;;;;;;1.50;1.40;;;;;;;;;;5046647;28;20189;-83
2022/09/26 04:14:48;;;;;;;2.45;1.85;;;;;;;;;;5038542;28;20228;-83
2022/09/26 04:17:15;;;;;;;2.53;2.15;;;;;;;;;;5039638;28;20537;-83
2022/09/26 04:19:43;;;;;;;1.58;1.48;;;;;;;;;;5046874;28;20201;-84
2022/09/26 04:22:10;;;;;;;3.75;1.70;;;;;;;;;;5043092;28;20229;-83
2022/09/26 04:24:38;;;;;;;1.63;1.40;;;;;;;;;;5038035;28;20218;-83
2022/09/26 04:27:07;;;;;;;1.85;1.50;;;;;;;;;;5035153;28;20285;-84
2022/09/26 04:29:34;;;;;;;1.98;1.80;;;;;;;;;;5039799;28;20198;-84
2022/09/26 04:32:02;;;;;;;2.08;1.98;;;;;;;;;;5038574;28;20273;-84
2022/09/26 04:34:30;;;;;;;2.35;1.60;;;;;;;;;;5035506;28;20253;-83
2022/09/26 04:36:58;;;;;;;1.70;1.60;;;;;;;;;;5034857;28;20202;-84
2022/09/26 04:39:25;;;;;;;2.22;1.98;;;;;;;;;;5039438;28;20256;-84
2022/09/26 04:41:53;;;;;;;2.58;1.80;;;;;;;;;;5045704;28;20193;-84
2022/09/26 04:44:22;;;;;;;2.97;2.10;;;;;;;;;;5047460;28;20609;-83
2022/09/26 04:46:49;;;;;;;3.42;2.88;;;;;;;;;;5044576;28;20194;-85
2022/09/26 04:49:16;;;;;;;1.95;1.77;;;;;;;;;;5036753;28;20214;-83
2022/09/26 04:51:44;;;;;;;2.38;1.73;;;;;;;;;;5048819;28;20281;-83
2022/09/26 04:54:11;;;;;;;2.30;2.10;;;;;;;;;;5035586;28;20214;-83
2022/09/26 04:56:39;;;;;;;4.78;2.78;;;;;;;;;;5050158;28;20198;-83
2022/09/26 04:59:06;;;;;;;2.58;2.00;;;;;;;;;;5053216;28;20205;-83
2022/09/26 05:01:35;;;;;;;3.83;2.47;;;;;;;;;;5037558;28;20287;-84
2022/09/26 05:04:03;;;;;;;1.90;1.80;;;;;;;;;;5050459;28;20234;-83
2022/09/26 05:06:30;;;;;;;2.75;2.08;;;;;;;;;;5053654;28;20285;-83
2022/09/26 05:08:58;;;;;;;3.17;2.13;;;;;;;;;;5052144;28;20577;-84
2022/09/26 05:11:25;;;;;;;7.00;2.67;;;;;;;;;;5039777;28;20289;-85
2022/09/26 05:13:53;;;;;;;2.20;2.05;;;;;;;;;;5034573;28;20301;-86
2022/09/26 05:16:20;;;;;;;3.60;2.30;;;;;;;;;;5041025;28;20297;-84
2022/09/26 05:18:51;;;;;;;2.35;2.15;;;;;;;;;;5038632;28;20205;-84
2022/09/26 05:21:19;;;;;;;3.15;2.58;;;;;;;;;;5049785;28;20198;-84
2022/09/26 05:26:40;;;;;;;1.60;1.50;;;;;;;;;;5034478;28;20497;-80
2022/09/26 05:29:08;;;;;;;1.50;1.40;;;;;;;;;;5035523;28;20202;-82
2022/09/26 05:31:36;;;;;;;3.03;1.75;;;;;;;;;;5049996;28;20206;-83
2022/09/26 05:34:06;;;;;;;2.28;1.42;;;;;;;;;;5041249;28;20217;-82
2022/09/26 05:36:34;;;;;;;2.58;1.58;;;;;;;;;;5039945;28;20582;-81
2022/09/26 05:39:02;;;;;;;2.28;2.00;;;;;;;;;;5041756;28;20198;-81
2022/09/26 05:41:29;;;;;;;2.00;1.90;;;;;;;;;;5046213;28;20290;-80
2022/09/26 05:43:57;;;;;;;2.10;1.90;;;;;;;;;;5043502;28;20229;-82
2022/09/26 05:46:27;;;;;;;2.13;1.70;;;;;;;;;;5053141;28;20208;-83
2022/09/26 05:48:56;;;;;;;2.30;1.80;;;;;;;;;;5044027;28;20221;-81
2022/09/26 05:51:24;;;;;;;2.55;1.95;;;;;;;;;;5045028;28;20281;-82
2022/09/26 05:53:52;;;;;;;3.08;2.22;;;;;;;;;;5034308;28;20581;-81
2022/09/26 05:56:20;;;;;;;3.30;1.60;;;;;;;;;;5046879;28;20200;-81
2022/09/26 05:58:47;;;;;;;2.03;1.83;;;;;;;;;;5041640;28;20255;-82
2022/09/26 06:01:17;;;;;;;3.95;2.05;;;;;;;;;;5049599;28;20233;-81
2022/09/26 06:03:46;;;;;;;1.88;1.70;;;;;;;;;;5050509;28;20232;-81
2022/09/26 06:06:16;;;;;;;2.42;2.00;;;;;;;;;;5054742;28;20202;-82
2022/09/26 06:08:46;;;;;;;2.65;1.55;;;;;;;;;;5053234;28;20194;-83
2022/09/26 06:11:15;;;;;;;2.17;2.03;;;;;;;;;;5045263;28;20264;-82
2022/09/26 06:13:45;;;;;;;2.20;1.90;;;;;;;;;;5053704;28;20602;-81
2022/09/26 06:16:17;;;;;;;1.80;1.70;;;;;;;;;;5046116;28;20206;-81
2022/09/26 06:18:45;;;;;;;1.73;1.63;;;;;;;;;;5045718;28;20552;-82
2022/09/26 06:21:14;;;;;;;1.55;1.45;;;;;;;;;;5044631;28;20198;-81
2022/09/26 06:23:43;;;;;;;2.45;1.70;;;;;;;;;;5040575;28;20218;-81
2022/09/26 06:26:16;;;;;;;2.00;1.90;;;;;;;;;;5037827;28;20202;-82
2022/09/26 06:28:43;;;;;;;2.97;2.22;;;;;;;;;;5045664;28;20202;-81
2022/09/26 06:31:12;;;;;;;2.20;1.70;;;;;;;;;;5048536;28;20869;-82
2022/09/26 06:33:39;;;;;;;4.18;1.80;;;;;;;;;;5051076;28;20204;-82
2022/09/26 06:36:10;;;;;;;2.25;2.00;;;;;;;;;;5057282;28;20220;-82
2022/09/26 06:38:38;;;;;;;2.22;1.55;;;;;;;;;;5048029;28;20215;-82
2022/09/26 06:41:07;;;;;;;3.47;2.00;;;;;;;;;;5037952;28;20198;-82
2022/09/26 06:43:34;;;;;;;3.40;2.25;;;;;;;;;;5043808;28;20228;-81
2022/09/26 06:46:02;;;;;;;2.00;1.85;;;;;;;;;;5048372;28;20662;-82
2022/09/26 06:48:29;;;;;;;2.58;2.20;;;;;;;;;;5039725;28;20262;-81
2022/09/26 06:50:59;;;;;;;1.88;1.77;;;;;;;;;;5037602;28;20206;-82
2022/09/26 06:53:27;;;;;;;3.97;2.30;;;;;;;;;;5044452;28;20202;-82
2022/09/26 06:55:54;;;;;;;2.00;1.65;;;;;;;;;;5045049;28;20728;-81
2022/09/26 06:58:23;;;;;;;3.58;2.28;;;;;;;;;;5038808;28;20198;-81
2022/09/26 07:00:50;;;;;;;2.10;1.92;;;;;;;;;;5048976;28;20351;-82
2022/09/26 07:03:18;;;;;;;1.95;1.73;;;;;;;;;;5051010;28;20198;-82
2022/09/26 07:05:45;;;;;;;2.60;2.28;;;;;;;;;;5056714;28;20249;-82
2022/09/26 07:08:13;;;;;;;3.55;1.95;;;;;;;;;;5054882;28;20276;-82
2022/09/26 07:10:41;;;;;;;3.75;2.00;;;;;;;;;;5044697;28;20229;-81
2022/09/26 07:13:09;;;;;;;3.33;2.10;;;;;;;;;;5057820;28;20197;-82
2022/09/26 07:15:38;;;;;;;2.60;2.13;;;;;;;;;;5049437;28;20236;-80
2022/09/26 07:18:07;;;;;;;4.03;2.72;;;;;;;;;;5046644;28;20203;-81
2022/09/26 07:20:39;;;;;;;2.25;2.05;;;;;;;;;;5043118;28;20224;-81
2022/09/26 07:23:09;;;;;;;2.47;2.28;;;;;;;;;;5048415;28;20198;-81
2022/09/26 07:25:38;;;;;;;2.75;2.22;;;;;;;;;;5038954;28;20226;-80
2022/09/26 07:28:06;;;;;;;2.65;2.15;;;;;;;;;;5043537;28;20205;-81
2022/09/26 07:30:33;;;;;;;2.88;2.67;;;;;;;;;;5051088;28;20202;-80
2022/09/26 07:33:04;;;;;;;3.22;2.30;;;;;;;;;;5057566;28;20591;-82
2022/09/26 07:35:32;;;;;;;3.30;2.53;;;;;;;;;;5054952;28;20222;-82
2022/09/26 07:38:00;;;;;;;4.47;3.38;;;;;;;;;;5035827;28;20217;-82
2022/09/26 07:40:28;;;;;;;2.90;2.45;;;;;;;;;;5041762;28;20285;-80
2022/09/26 07:43:00;;;;;;;2.85;2.45;;;;;;;;;;5039725;28;20289;-81
2022/09/26 07:51:00;;;;;;;3.97;2.75;;;;;;;;;;5046468;28;20217;-81
2022/09/26 07:53:28;;;;;;;2.75;2.40;;;;;;;;;;5047562;28;20194;-80
2022/09/26 07:56:10;;;;;;;3.95;2.72;;;;;;;;;;5053644;28;20301;-81
2022/09/26 07:58:39;;;;;;;2.58;2.38;;;;;;;;;;5052794;28;20190;-82
2022/09/26 08:01:10;;;;;;;2.65;2.45;;;;;;;;;;5034598;28;20554;-81
2022/09/26 08:03:39;;;;;;;3.30;3.05;;;;;;;;;;5042521;28;20199;-79
2022/09/26 08:06:07;;;;;;;2.70;2.50;;;;;;;;;;5040226;28;20657;-82
2022/09/26 08:08:35;;;;;;;3.08;2.03;;;;;;;;;;5044348;28;20612;-82
2022/09/26 08:11:04;;;;;;;3.10;2.80;;;;;;;;;;5049840;28;20221;-82
2022/09/26 08:13:33;;;;;;;3.67;3.38;;;;;;;;;;5047133;28;20669;-81
2022/09/26 08:16:04;;;;;;;3.53;2.50;;;;;;;;;;5050454;28;20211;-82
2022/09/26 08:18:32;;;;;;;2.45;2.30;;;;;;;;;;5040156;28;20206;-80
2022/09/26 08:21:04;;;;;;;3.20;3.00;;;;;;;;;;5044935;28;20211;-81
2022/09/26 08:23:32;;;;;;;3.50;2.67;;;;;;;;;;5055544;28;20243;-82
2022/09/26 08:25:59;;;;;;;3.17;2.92;;;;;;;;;;5055208;28;20589;-83
2022/09/26 08:28:27;;;;;;;3.92;3.60;;;;;;;;;;5044601;28;20292;-81
2022/09/26 08:30:57;;;;;;;4.18;3.30;;;;;;;;;;5044513;28;20209;-81
2022/09/26 08:33:24;;;;;;;3.22;3.03;;;;;;;;;;5054430;28;20669;-81
2022/09/26 08:35:52;;;;;;;4.35;2.67;;;;;;;;;;5041476;28;20214;-82
2022/09/26 08:38:21;;;;;;;3.45;2.78;;;;;;;;;;5042456;28;20202;-81
2022/09/26 08:40:55;;;;;;;3.08;2.78;;;;;;;;;;5054914;28;20206;-81
2022/09/26 08:43:38;;;;;;;2.88;2.67;;;;;;;;;;5056537;28;20205;-81
2022/09/26 08:46:31;;;;;;;3.55;2.83;;;;;;;;;;5050449;28;20593;-81
2022/09/26 08:49:24;;;;;;;2.72;2.53;;;;;;;;;;5043349;28;20248;-80
2022/09/26 08:51:53;;;;;;;2.25;2.10;;;;;;;;;;5051807;28;20622;-81
2022/09/26 08:54:32;;;;;;;3.08;2.58;;;;;;;;;;5035282;28;20230;-80
2022/09/26 08:57:05;;;;;;;2.58;1.92;;;;;;;;;;5039459;28;20197;-81
2022/09/26 08:59:38;;;;;;;5.80;3.50;;;;;;;;;;5042405;28;20221;-81
2022/09/26 09:02:16;;;;;;;3.10;2.80;;;;;;;;;;5047755;28;20205;-82
2022/09/26 09:04:50;;;;;;;3.38;3.08;;;;;;;;;;5051579;28;20701;-81
2022/09/26 09:07:23;;;;;;;3.60;3.30;;;;;;;;;;5048454;28;20197;-81
2022/09/26 09:09:55;;;;;;;2.88;2.65;;;;;;;;;;5047916;28;20276;-81
2022/09/26 09:12:32;;;;;;;2.70;2.30;;;;;;;;;;5049851;28;20240;-82
2022/09/26 09:15:23;;;;;;;2.50;2.17;;;;;;;;;;5047339;28;20221;-81
2022/09/26 09:18:01;;;;;;;2.25;2.13;;;;;;;;;;5047247;28;20202;-82
2022/09/26 09:20:42;;;;;;;2.20;2.00;;;;;;;;;;5052159;28;20207;-81
2022/09/26 09:23:36;;;;;;;2.30;2.20;;;;;;;;;;5054336;28;20204;-82
2022/09/26 09:26:11;;;;;;;2.35;1.90;;;;;;;;;;5043322;28;20228;-82
2022/09/26 09:29:01;;;;;;;3.05;2.53;;;;;;;;;;5037070;28;20194;-83
2022/09/26 09:31:36;;;;;;;1.88;1.70;;;;;;;;;;5039655;28;20644;-82
2022/09/26 09:34:09;;;;;;;2.25;2.05;;;;;;;;;;5042228;28;20223;-81
2022/09/26 09:36:42;;;;;;;1.75;1.65;;;;;;;;;;5042221;28;20207;-82
2022/09/26 09:39:12;;;;;;;2.30;2.10;;;;;;;;;;5044926;28;20193;-80
2022/09/26 09:41:45;;;;;;;1.73;1.63;;;;;;;;;;5046397;28;20290;-81
2022/09/26 09:44:27;;;;;;;1.40;1.30;;;;;;;;;;5044423;28;20217;-81
2022/09/26 09:46:55;;;;;;;1.67;1.58;;;;;;;;;;5039214;28;20218;-82
2022/09/26 09:49:24;;;;;;;1.50;1.35;;;;;;;;;;5042009;28;20384;-81
2022/09/26 09:52:06;;;;;;;1.45;1.35;;;;;;;;;;5042649;28;20195;-83
2022/09/26 09:54:50;;;;;;;2.60;1.45;;;;;;;;;;5044245;28;20221;-81
2022/09/26 09:57:38;;;;;;;1.70;1.60;;;;;;;;;;5049521;28;20193;-83
2022/09/26 10:00:12;;;;;;;2.08;1.92;;;;;;;;;;5048406;28;20202;-84
2022/09/26 10:02:48;;;;;;;1.70;1.60;;;;;;;;;;5052184;28;20202;-82
2022/09/26 10:05:27;;;;;;;2.20;2.10;;;;;;;;;;5047756;28;20213;-82
2022/09/26 10:07:57;;;;;;;1.60;1.50;;;;;;;;;;5049990;28;20201;-82
2022/09/26 10:10:34;;;;;;;1.30;1.20;;;;;;;;;;5045006;28;20194;-83
2022/09/26 10:13:03;;;;;;;1.48;1.33;;;;;;;;;;5047409;28;20206;-84
2022/09/26 10:15:31;;;;;;;1.60;1.48;;;;;;;;;;5049837;28;20698;-82
2022/09/26 10:18:04;;;;;;;1.67;1.40;;;;;;;;;;5054043;28;20190;-82
2022/09/26 10:20:40;;;;;;;1.83;1.73;;;;;;;;;;5053741;28;20657;-83
2022/09/26 10:23:18;;;;;;;1.35;1.25;;;;;;;;;;5053139;28;20237;-83
2022/09/26 10:25:48;;;;;;;2.70;1.33;;;;;;;;;;5056723;28;20221;-82
2022/09/26 10:28:34;;;;;;;5.72;1.80;;;;;;;;;;5048479;28;20205;-84
2022/09/26 10:31:08;;;;;;;1.10;1.10;;;;;;;;;;5059556;28;20205;-84
2022/09/26 10:33:38;;;;;;;1.65;1.55;;;;;;;;;;5056291;28;20202;-84
2022/09/26 10:36:16;;;;;;;1.38;1.27;;;;;;;;;;5048287;28;20198;-83
2022/09/26 10:41:41;;;;;;;1.08;1.08;;;;;;;;;;5047368;28;20284;-84
2022/09/26 10:44:25;;;;;;;1.30;1.20;;;;;;;;;;5055837;28;20216;-83
2022/09/26 10:46:56;;;;;;;1.95;1.60;;;;;;;;;;5052361;28;20236;-84
2022/09/26 10:49:31;;;;;;;1.73;1.13;;;;;;;;;;5048239;28;20194;-81
2022/09/26 10:52:07;;;;;;;1.33;1.20;;;;;;;;;;5056572;28;20193;-83
2022/09/26 10:54:40;;;;;;;1.95;1.25;;;;;;;;;;5057645;28;20735;-83
2022/09/26 10:57:12;;;;;;;2.13;1.92;;;;;;;;;;5050686;28;20228;-82
2022/09/26 10:59:42;;;;;;;0.88;0.77;;;;;;;;;;5055122;28;20649;-81
2022/09/26 11:02:20;;;;;;;1.35;1.25;;;;;;;;;;5051497;28;20202;-82
2022/09/26 11:07:39;;;;;;;1.42;1.13;;;;;;;;;;5054893;28;20228;-83
2022/09/26 11:10:12;;;;;;;1.30;1.20;;;;;;;;;;5051088;28;20256;-83
2022/09/26 11:12:56;;;;;;;2.05;1.30;;;;;;;;;;5051960;28;20285;-83
2022/09/26 11:15:27;;;;;;;2.03;1.92;;;;;;;;;;5056953;28;20225;-83
2022/09/26 11:17:55;;;;;;;1.35;1.25;;;;;;;;;;5049384;28;20264;-81
2022/09/26 11:20:41;;;;;;;0.90;0.90;;;;;;;;;;5048792;28;20201;-82
2022/09/26 11:23:21;;;;;;;1.30;1.20;;;;;;;;;;5050258;28;20204;-84
2022/09/26 11:25:58;;;;;;;3.97;1.40;;;;;;;;;;5051858;28;20228;-83
2022/09/26 11:28:33;;;;;;;0.90;0.90;;;;;;;;;;5047379;28;20288;-84
2022/09/26 11:31:07;;;;;;;1.48;1.00;;;;;;;;;;5035934;28;20559;-83
2022/09/26 11:33:36;;;;;;;4.38;1.42;;;;;;;;;;5050990;28;20194;-83
2022/09/26 11:36:16;;;;;;;1.75;1.35;;;;;;;;;;5036207;28;20766;-83
2022/09/26 11:38:47;;;;;;;1.23;1.10;;;;;;;;;;5047047;28;20212;-84
2022/09/26 11:41:37;;;;;;;3.65;1.50;;;;;;;;;;5042691;28;20808;-84
2022/09/26 11:44:33;;;;;;;2.83;1.20;;;;;;;;;;5051488;28;20769;-83
2022/09/26 11:47:27;;;;;;;1.35;1.25;;;;;;;;;;5047780;28;20222;-82
2022/09/26 11:50:22;;;;;;;1.08;0.98;;;;;;;;;;5037589;28;20638;-83
2022/09/26 11:53:03;;;;;;;2.47;1.20;;;;;;;;;;5041271;28;20658;-82
2022/09/26 11:55:38;;;;;;;2.80;0.95;;;;;;;;;;5036994;28;20225;-84
2022/09/26 11:58:13;;;;;;;1.10;1.00;;;;;;;;;;5042417;28;20220;-82
2022/09/26 12:00:50;;;;;;;0.73;0.73;;;;;;;;;;5043937;28;20212;-82
2022/09/26 12:03:51;;;;;;;0.95;0.90;;;;;;;;;;5040083;28;20202;-81
2022/09/26 12:06:32;;;;;;;0.77;0.77;;;;;;;;;;5035623;28;20228;-82
2022/09/26 12:09:32;;;;;;;1.40;1.30;;;;;;;;;;5036603;28;20280;-82
2022/09/26 12:12:09;;;;;;;0.63;0.63;;;;;;;;;;5044910;28;20209;-83
2022/09/26 12:14:52;;;;;;;0.77;0.77;;;;;;;;;;5048455;28;20225;-82
2022/09/26 12:17:33;;;;;;;0.90;0.90;;;;;;;;;;5052298;28;20209;-82
2022/09/26 12:20:17;;;;;;;2.42;1.00;;;;;;;;;;5049713;28;20224;-82
2022/09/26 12:22:51;;;;;;;1.58;1.08;;;;;;;;;;5047732;28;20555;-82
2022/09/26 12:25:33;;;;;;;1.13;1.02;;;;;;;;;;5053796;28;20210;-82
2022/09/26 12:28:20;;;;;;;1.00;1.00;;;;;;;;;;5054355;28;20650;-81
2022/09/26 12:30:57;;;;;;;0.90;0.90;;;;;;;;;;5044475;28;20288;-84
2022/09/26 12:33:49;;;;;;;1.08;1.05;;;;;;;;;;5045530;28;20680;-82
2022/09/26 12:36:30;;;;;;;0.73;0.73;;;;;;;;;;5049374;28;20202;-83
2022/09/26 12:39:18;;;;;;;1.10;1.02;;;;;;;;;;5051481;28;20198;-82
2022/09/26 12:42:04;;;;;;;0.80;0.80;;;;;;;;;;5047531;28;20197;-83
2022/09/26 12:44:49;;;;;;;1.08;1.00;;;;;;;;;;5054373;28;20226;-83
2022/09/26 12:47:42;;;;;;;0.82;0.82;;;;;;;;;;5053747;28;20705;-82
2022/09/26 12:50:23;;;;;;;3.08;1.95;;;;;;;;;;5043190;28;20206;-83
2022/09/26 12:53:32;;;;;;;1.25;1.00;;;;;;;;;;5046375;28;20204;-83
2022/09/26 12:56:06;;;;;;;1.35;0.98;;;;;;;;;;5042054;28;20212;-83
2022/09/26 12:58:57;;;;;;;1.67;1.05;;;;;;;;;;5052370;28;20674;-82
2022/09/26 13:01:55;;;;;;;0.82;0.82;;;;;;;;;;5042434;28;20205;-82
2022/09/26 13:04:49;;;;;;;1.10;0.68;;;;;;;;;;5044934;28;20297;-82
2022/09/26 13:07:29;;;;;;;1.10;1.00;;;;;;;;;;5045884;28;20214;-81
2022/09/26 13:10:32;;;;;;;0.80;0.80;;;;;;;;;;5044095;28;20205;-82
2022/09/26 13:13:33;;;;;;;0.80;0.80;;;;;;;;;;5046286;28;20591;-82
2022/09/26 13:16:13;;;;;;;1.45;0.90;;;;;;;;;;5044875;28;20212;-83
2022/09/26 13:18:48;;;;;;;2.25;1.17;;;;;;;;;;5049332;28;20276;-80
2022/09/26 13:21:23;;;;;;;0.80;0.80;;;;;;;;;;5041630;28;20221;-80
2022/09/26 13:23:56;;;;;;;1.38;0.90;;;;;;;;;;5036765;28;20201;-82
2022/09/26 13:26:28;;;;;;;1.35;1.25;;;;;;;;;;5042413;28;20206;-83
2022/09/26 13:29:02;;;;;;;1.15;0.77;;;;;;;;;;5041536;28;20250;-83
2022/09/26 13:31:33;;;;;;;1.20;0.65;;;;;;;;;;5035666;28;20201;-82
2022/09/26 13:34:08;;;;;;;1.30;1.20;;;;;;;;;;5047030;28;20721;-83
2022/09/26 13:36:37;;;;;;;1.00;1.00;;;;;;;;;;5043800;28;20201;-83
2022/09/26 13:39:08;;;;;;;0.77;0.63;;;;;;;;;;5055161;28;20198;-82
2022/09/26 13:41:44;;;;;;;2.08;1.60;;;;;;;;;;5040750;28;20194;-82
2022/09/26 13:44:28;;;;;;;1.80;0.90;;;;;;;;;;5046582;28;20588;-82
2022/09/26 13:47:07;;;;;;;0.60;0.60;;;;;;;;;;5042015;28;20251;-81
2022/09/26 13:49:49;;;;;;;1.25;0.93;;;;;;;;;;5039435;28;20198;-83
2022/09/26 13:52:35;;;;;;;0.80;0.77;;;;;;;;;;5037291;28;20289;-82
2022/09/26 13:55:13;;;;;;;1.52;1.00;;;;;;;;;;5045667;28;20717;-83
2022/09/26 13:57:50;;;;;;;0.90;0.90;;;;;;;;;;5034532;28;20197;-83
2022/09/26 14:00:47;;;;;;;0.70;0.70;;;;;;;;;;5032719;28;20234;-82
2022/09/26 14:03:41;;;;;;;0.80;0.80;;;;;;;;;;5043243;28;20237;-83
2022/09/26 14:06:29;;;;;;;0.85;0.85;;;;;;;;;;5041255;28;20212;-82
2022/09/26 14:09:24;;;;;;;0.90;0.90;;;;;;;;;;5044533;28;20222;-82
2022/09/26 14:12:33;;;;;;;1.48;0.95;;;;;;;;;;5054571;28;20209;-82
2022/09/26 14:15:23;;;;;;;0.90;0.90;;;;;;;;;;5018728;28;20602;-80
2022/09/26 14:18:33;;;;;;;0.80;0.80;;;;;;;;;;5043248;28;20206;-81
2022/09/26 14:21:14;;;;;;;0.70;0.70;;;;;;;;;;5018058;28;20228;-81
2022/09/26 14:23:44;;;;;;;1.55;1.45;;;;;;;;;;5052576;28;20193;-80
2022/09/26 14:26:14;;;;;;;0.70;0.70;;;;;;;;;;5033704;28;20226;-82
2022/09/26 14:28:52;;;;;;;1.63;0.77;;;;;;;;;;5033624;28;20214;-82
2022/09/26 14:31:37;;;;;;;0.68;0.68;;;;;;;;;;5044277;28;20200;-82
2022/09/26 14:34:22;;;;;;;1.27;0.95;;;;;;;;;;5045905;28;20284;-82
2022/09/26 14:36:51;;;;;;;0.80;0.80;;;;;;;;;;5034271;28;20256;-82
2022/09/26 14:39:33;;;;;;;1.00;1.00;;;;;;;;;;5033985;28;20208;-81
2022/09/26 14:42:09;;;;;;;0.90;0.90;;;;;;;;;;5040923;28;20276;-81
2022/09/26 14:44:37;;;;;;;1.00;1.00;;;;;;;;;;5055759;28;20213;-80
2022/09/26 14:47:11;;;;;;;2.47;1.00;;;;;;;;;;5055906;28;20202;-81
2022/09/26 14:49:40;;;;;;;0.60;0.60;;;;;;;;;;5051697;28;20240;-81
2022/09/26 14:52:18;;;;;;;1.35;0.82;;;;;;;;;;5047357;28;20233;-81
2022/09/26 14:54:47;;;;;;;1.20;1.10;;;;;;;;;;5056135;28;20692;-80
2022/09/26 14:57:23;;;;;;;1.00;1.00;;;;;;;;;;5055936;28;20244;-81
2022/09/26 14:59:51;;;;;;;1.65;0.90;;;;;;;;;;5047147;28;20200;-82
2022/09/26 15:02:33;;;;;;;0.77;0.77;;;;;;;;;;5042693;28;20252;-81
2022/09/26 15:05:27;;;;;;;0.90;0.90;;;;;;;;;;5041794;28;20222;-79
2022/09/26 15:07:55;;;;;;;1.88;0.85;;;;;;;;;;5029020;28;20234;-80
2022/09/26 15:10:40;;;;;;;0.75;0.70;;;;;;;;;;5042410;28;20260;-81
2022/09/26 15:13:25;;;;;;;2.33;1.20;;;;;;;;;;5047696;28;20202;-79
2022/09/26 15:16:07;;;;;;;1.08;1.08;;;;;;;;;;5052968;28;20217;-81
2022/09/26 15:18:40;;;;;;;1.80;0.90;;;;;;;;;;5054631;28;20262;-80
2022/09/26 15:21:19;;;;;;;0.90;0.90;;;;;;;;;;5046545;28;20198;-80
2022/09/26 15:23:51;;;;;;;1.52;1.42;;;;;;;;;;5056326;28;20251;-80
2022/09/26 15:26:21;;;;;;;1.10;1.10;;;;;;;;;;5056454;28;20233;-81
2022/09/26 15:28:49;;;;;;;1.00;1.00;;;;;;;;;;5055867;28;20327;-81
2022/09/26 15:31:26;;;;;;;1.55;1.10;;;;;;;;;;5043119;28;20221;-80
2022/09/26 15:34:01;;;;;;;1.20;1.10;;;;;;;;;;5053998;28;20212;-79
2022/09/26 15:36:30;;;;;;;0.90;0.90;;;;;;;;;;5046683;28;20209;-81
2022/09/26 15:38:59;;;;;;;2.75;1.20;;;;;;;;;;5055940;28;20189;-80